createdAt,value
2022-10-04T00:00:41.644Z,31.35
2022-10-04T00:03:30.155Z,30.95
2022-10-04T00:06:00.300Z,30.30
2022-10-04T00:08:37.144Z,30.02
2022-10-04T00:11:14.735Z,29.90
2022-10-04T00:13:47.013Z,27.23
2022-10-04T00:16:21.918Z,28.95
2022-10-04T00:18:48.497Z,29.20
2022-10-04T00:21:15.045Z,28.92
2022-10-04T00:23:44.417Z,29.50
2022-10-04T00:26:22.883Z,29.48
2022-10-04T00:28:50.090Z,29.92
2022-10-04T00:31:19.432Z,28.50
2022-10-04T00:33:47.466Z,30.50
2022-10-04T00:36:25.631Z,31.58
2022-10-04T00:39:04.772Z,32.42
2022-10-04T00:41:37.273Z,32.15
2022-10-04T00:44:09.165Z,31.52
2022-10-04T00:46:40.592Z,32.53
2022-10-04T00:49:09.285Z,31.98
2022-10-04T00:51:52.532Z,32.15
2022-10-04T00:54:42.085Z,32.55
2022-10-04T00:57:17.967Z,29.60
2022-10-04T00:59:47.230Z,31.10
2022-10-04T01:02:33.695Z,30.90
2022-10-04T01:05:10.716Z,32.17
2022-10-04T01:07:51.427Z,31.33
2022-10-04T01:10:45.847Z,28.70
2022-10-04T01:13:21.242Z,31.92
2022-10-04T01:15:56.898Z,30.20
2022-10-04T01:18:23.225Z,32.90
2022-10-04T01:20:54.568Z,30.33
2022-10-04T01:23:41.709Z,29.65
2022-10-04T01:26:26.423Z,29.95
2022-10-04T01:31:21.399Z,29.73
2022-10-04T01:33:48.473Z,28.48
2022-10-04T01:36:15.333Z,29.58
2022-10-04T01:38:41.928Z,29.65
2022-10-04T01:41:10.806Z,33.08
2022-10-04T01:43:42.635Z,29.17
2022-10-04T01:46:22.361Z,32.00
2022-10-04T01:48:48.836Z,30.73
2022-10-04T01:51:21.359Z,29.10
2022-10-04T01:53:54.395Z,28.88
2022-10-04T01:56:26.654Z,29.50
2022-10-04T01:59:06.261Z,28.67
2022-10-04T02:01:38.664Z,28.48
2022-10-04T02:04:31.857Z,31.15
2022-10-04T02:07:00.906Z,29.23
2022-10-04T02:09:32.005Z,31.90
2022-10-04T02:11:59.617Z,30.17
2022-10-04T02:14:31.999Z,29.98
2022-10-04T02:17:01.876Z,31.48
2022-10-04T02:19:35.392Z,30.98
2022-10-04T02:22:07.077Z,30.52
2022-10-04T02:24:37.087Z,29.65
2022-10-04T02:27:03.633Z,31.15
2022-10-04T02:29:30.023Z,29.52
2022-10-04T02:32:15.175Z,32.30
2022-10-04T02:34:41.888Z,29.83
2022-10-04T02:37:08.822Z,31.60
2022-10-04T02:39:40.670Z,34.50
2022-10-04T02:42:20.249Z,31.58
2022-10-04T02:44:57.003Z,30.60
2022-10-04T02:47:29.326Z,34.45
2022-10-04T02:50:01.677Z,35.92
2022-10-04T02:52:46.417Z,35.45
2022-10-04T02:57:43.583Z,28.45
2022-10-04T03:00:19.302Z,33.88
2022-10-04T03:03:23.511Z,41.75
2022-10-04T03:06:06.368Z,38.08
2022-10-04T03:08:44.162Z,35.03
2022-10-04T03:11:13.930Z,37.55
2022-10-04T03:13:44.825Z,38.03
2022-10-04T03:16:11.391Z,36.17
2022-10-04T03:18:38.164Z,43.00
2022-10-04T03:21:12.058Z,42.08
2022-10-04T03:23:39.706Z,41.92
2022-10-04T03:26:19.079Z,37.05
2022-10-04T03:28:46.166Z,37.58
2022-10-04T03:31:14.496Z,33.72
2022-10-04T03:33:43.219Z,31.92
2022-10-04T03:36:14.963Z,31.88
2022-10-04T03:38:41.339Z,33.28
2022-10-04T03:41:11.550Z,30.08
2022-10-04T03:43:44.174Z,37.58
2022-10-04T03:46:12.704Z,31.67
2022-10-04T03:48:51.146Z,35.95
2022-10-04T03:51:21.966Z,37.63
2022-10-04T03:53:52.168Z,39.92
2022-10-04T03:56:35.229Z,36.03
2022-10-04T03:59:06.349Z,32.13
2022-10-04T04:01:42.786Z,35.05
2022-10-04T04:04:17.885Z,38.58
2022-10-04T04:06:54.279Z,34.28
2022-10-04T04:09:35.406Z,34.67
2022-10-04T04:12:06.314Z,34.15
2022-10-04T04:14:32.798Z,37.92
2022-10-04T04:17:25.674Z,34.45
2022-10-04T04:19:54.830Z,33.28
2022-10-04T04:22:21.578Z,32.70
2022-10-04T04:24:49.619Z,35.63
2022-10-04T04:27:18.053Z,36.35
2022-10-04T04:29:50.306Z,38.92
2022-10-04T04:32:34.839Z,40.15
2022-10-04T04:35:10.090Z,37.22
2022-10-04T04:37:37.919Z,42.55
2022-10-04T04:40:22.453Z,41.70
2022-10-04T04:42:49.897Z,37.17
2022-10-04T04:45:22.731Z,36.97
2022-10-04T04:47:54.046Z,34.20
2022-10-04T04:50:24.450Z,32.00
2022-10-04T04:52:55.315Z,29.42
2022-10-04T04:55:25.942Z,29.00
2022-10-04T04:57:55.996Z,30.35
2022-10-04T05:00:28.574Z,29.80
2022-10-04T05:02:58.846Z,27.65
2022-10-04T05:05:33.430Z,29.80
2022-10-04T05:08:29.473Z,28.40
2022-10-04T05:11:08.260Z,29.48
2022-10-04T05:13:46.327Z,30.55
2022-10-04T05:16:20.027Z,32.03
2022-10-04T05:18:46.985Z,34.45
2022-10-04T05:21:29.979Z,35.95
2022-10-04T05:23:58.865Z,37.13
2022-10-04T05:26:28.967Z,40.22
2022-10-04T05:28:59.127Z,33.05
2022-10-04T05:31:33.053Z,32.97
2022-10-04T05:33:59.603Z,30.60
2022-10-04T05:36:52.846Z,33.50
2022-10-04T05:39:25.348Z,29.25
2022-10-04T05:42:10.027Z,30.65
2022-10-04T05:47:14.230Z,28.20
2022-10-04T05:49:44.311Z,30.33
2022-10-04T05:52:38.525Z,29.92
2022-10-04T05:55:26.203Z,33.45
2022-10-04T05:58:19.057Z,32.42
2022-10-04T06:01:03.939Z,32.65
2022-10-04T06:03:48.137Z,33.67
2022-10-04T06:06:33.034Z,31.95
2022-10-04T06:09:09.148Z,30.90
2022-10-04T06:12:17.240Z,34.58
2022-10-04T06:15:17.295Z,30.45
2022-10-04T06:17:52.793Z,31.67
2022-10-04T06:20:35.935Z,32.30
2022-10-04T06:23:12.095Z,31.08
2022-10-04T06:25:47.051Z,29.98
2022-10-04T06:28:24.343Z,33.75
2022-10-04T06:31:18.502Z,29.80
2022-10-04T06:34:06.633Z,30.42
2022-10-04T06:36:55.252Z,29.40
2022-10-04T06:39:24.559Z,30.25
2022-10-04T06:42:20.778Z,30.52
2022-10-04T06:44:56.373Z,29.35
2022-10-04T06:48:00.960Z,31.60
2022-10-04T06:50:45.193Z,31.40
2022-10-04T06:53:42.083Z,32.30
2022-10-04T06:56:24.597Z,33.33
2022-10-04T06:59:19.048Z,31.52
2022-10-04T07:01:51.778Z,30.67
2022-10-04T07:04:55.755Z,31.13
2022-10-04T07:07:35.393Z,30.40
2022-10-04T07:10:30.953Z,31.10
2022-10-04T07:13:03.400Z,30.83
2022-10-04T07:15:50.435Z,32.30
2022-10-04T07:18:26.976Z,32.55
2022-10-04T07:21:15.597Z,28.77
2022-10-04T07:23:51.700Z,30.48
2022-10-04T07:26:51.934Z,32.10
2022-10-04T07:29:30.919Z,31.17
2022-10-04T07:32:21.173Z,29.50
2022-10-04T07:35:04.168Z,29.80
2022-10-04T07:37:36.491Z,30.52
2022-10-04T07:40:29.224Z,33.05
2022-10-04T07:43:05.122Z,31.10
2022-10-04T07:45:40.211Z,31.85
2022-10-04T07:48:15.912Z,31.60
2022-10-04T07:51:01.295Z,31.13
2022-10-04T07:53:30.061Z,34.35
2022-10-04T07:56:11.010Z,30.48
2022-10-04T07:58:45.996Z,32.75
2022-10-04T08:01:25.921Z,33.88
2022-10-04T08:04:11.286Z,34.72
2022-10-04T08:06:59.746Z,33.38
2022-10-04T08:09:49.171Z,29.55
2022-10-04T08:12:19.301Z,29.80
2022-10-04T08:14:52.383Z,30.92
2022-10-04T08:17:39.438Z,28.23
2022-10-04T08:20:45.319Z,30.08
2022-10-04T08:23:29.145Z,28.15
2022-10-04T08:26:12.647Z,31.27
2022-10-04T08:29:01.650Z,32.75
2022-10-04T08:31:58.291Z,31.63
2022-10-04T08:34:33.219Z,31.25
2022-10-04T08:37:11.280Z,35.03
2022-10-04T08:39:52.868Z,30.33
2022-10-04T08:42:48.192Z,28.45
2022-10-04T08:45:38.112Z,35.55
2022-10-04T08:48:26.279Z,37.00
2022-10-04T08:51:28.174Z,42.20
2022-10-04T08:54:35.483Z,39.95
2022-10-04T08:57:15.632Z,36.60
2022-10-04T09:00:10.528Z,42.25
2022-10-04T09:03:07.356Z,37.95
2022-10-04T09:05:56.712Z,34.30
2022-10-04T09:09:00.453Z,36.90
2022-10-04T09:11:50.959Z,39.33
2022-10-04T09:14:45.733Z,40.22
2022-10-04T09:17:23.069Z,37.65
2022-10-04T09:20:26.160Z,40.58
2022-10-04T09:22:57.096Z,43.45
2022-10-04T09:25:41.786Z,45.45
2022-10-04T09:30:56.289Z,42.67
2022-10-04T09:33:33.402Z,40.88
2022-10-04T09:36:19.304Z,34.50
2022-10-04T09:39:29.071Z,31.52
2022-10-04T09:42:26.850Z,35.28
2022-10-04T09:45:40.668Z,33.15
2022-10-04T09:48:35.226Z,29.75
2022-10-04T09:51:29.188Z,32.92
2022-10-04T09:54:11.732Z,35.13
2022-10-04T09:56:56.760Z,28.60
2022-10-04T09:59:44.637Z,15.85
2022-10-04T10:02:38.545Z,16.02
2022-10-04T10:05:26.849Z,13.95
2022-10-04T10:08:05.991Z,11.35
2022-10-04T10:11:19.969Z,13.45
2022-10-04T10:14:01.150Z,15.00
2022-10-04T10:16:49.635Z,12.82
2022-10-04T10:20:00.083Z,11.57
2022-10-04T10:23:00.466Z,11.98
2022-10-04T10:25:59.164Z,13.00
2022-10-04T10:28:45.836Z,11.40
2022-10-04T10:31:24.113Z,13.52
2022-10-04T10:34:27.646Z,14.98
2022-10-04T10:37:02.970Z,12.00
2022-10-04T10:39:47.890Z,10.90
2022-10-04T10:42:52.018Z,10.38
2022-10-04T10:45:37.990Z,12.48
2022-10-04T10:48:40.309Z,12.70
2022-10-04T10:51:18.504Z,12.23
2022-10-04T10:54:12.473Z,10.57
2022-10-04T10:56:51.618Z,11.30
2022-10-04T10:59:49.904Z,12.48
2022-10-04T11:02:50.336Z,13.18
2022-10-04T11:05:36.719Z,12.52
2022-10-04T11:08:16.274Z,12.70
2022-10-04T11:10:54.736Z,13.55
2022-10-04T11:13:51.441Z,17.17
2022-10-04T11:16:43.535Z,12.98
2022-10-04T11:19:36.447Z,16.38
2022-10-04T11:22:48.982Z,12.55
2022-10-04T11:25:36.048Z,13.68
2022-10-04T11:28:18.265Z,13.27
2022-10-04T11:31:23.830Z,13.40
2022-10-04T11:34:16.545Z,13.75
2022-10-04T11:36:56.227Z,15.95
2022-10-04T11:40:09.940Z,11.25
2022-10-04T11:43:20.110Z,12.63
2022-10-04T11:46:13.236Z,11.27
2022-10-04T11:48:58.850Z,13.75
2022-10-04T11:51:48.615Z,10.73
2022-10-04T11:54:18.027Z,12.18
2022-10-04T11:57:12.272Z,12.07
2022-10-04T11:59:55.349Z,12.48
2022-10-04T12:02:41.206Z,11.77
2022-10-04T12:05:35.598Z,12.25
2022-10-04T12:08:33.434Z,12.65
2022-10-04T12:10:59.719Z,12.25
2022-10-04T12:13:37.874Z,14.32
2022-10-04T12:16:29.739Z,12.55
2022-10-04T12:19:27.407Z,10.90
2022-10-04T12:22:16.122Z,11.20
2022-10-04T12:25:37.428Z,12.07
2022-10-04T12:28:27.038Z,12.32
2022-10-04T12:31:05.634Z,11.30
2022-10-04T12:33:50.156Z,11.73
2022-10-04T12:36:26.142Z,11.25
2022-10-04T12:39:23.209Z,13.55
2022-10-04T12:42:07.833Z,13.48
2022-10-04T12:44:55.062Z,12.65
2022-10-04T12:47:37.256Z,10.48
2022-10-04T12:50:35.466Z,7.25
2022-10-04T12:53:14.545Z,6.88
2022-10-04T12:56:18.977Z,6.43
2022-10-04T12:59:17.161Z,6.43
2022-10-04T13:02:25.097Z,6.82
2022-10-04T13:04:59.124Z,6.10
2022-10-04T13:07:28.571Z,6.63
2022-10-04T13:10:36.753Z,6.20
2022-10-04T13:13:17.491Z,7.80
2022-10-04T13:19:05.951Z,9.50
2022-10-04T13:21:35.001Z,17.52
2022-10-04T13:24:15.354Z,9.02
2022-10-04T13:27:02.882Z,9.82
2022-10-04T13:29:51.222Z,9.00
2022-10-04T13:32:28.087Z,6.97
2022-10-04T13:35:12.464Z,6.40
2022-10-04T13:38:16.246Z,6.75
2022-10-04T13:41:03.363Z,7.13
2022-10-04T13:44:18.333Z,6.70
2022-10-04T13:47:10.598Z,8.75
2022-10-04T13:50:23.655Z,8.30
2022-10-04T13:53:23.258Z,8.02
2022-10-04T13:56:36.557Z,7.57
2022-10-04T13:59:34.518Z,7.28
2022-10-04T14:02:21.713Z,8.55
2022-10-04T14:05:27.579Z,9.27
2022-10-04T14:08:12.187Z,7.30
2022-10-04T14:11:09.519Z,8.90
2022-10-04T14:13:42.974Z,8.32
2022-10-04T14:16:46.527Z,7.53
2022-10-04T14:19:41.914Z,8.02
2022-10-04T14:22:11.657Z,7.00
2022-10-04T14:25:05.257Z,7.47
2022-10-04T14:28:13.787Z,7.43
2022-10-04T14:30:59.059Z,6.53
2022-10-04T14:33:59.278Z,8.07
2022-10-04T14:37:09.447Z,6.95
2022-10-04T14:39:53.484Z,8.90
2022-10-04T14:42:46.772Z,7.32
2022-10-04T14:45:42.655Z,9.13
2022-10-04T14:48:27.515Z,9.82
2022-10-04T14:51:19.390Z,7.25
2022-10-04T14:54:00.782Z,7.63
2022-10-04T14:56:43.956Z,9.50
2022-10-04T14:59:22.554Z,10.15
2022-10-04T15:02:01.332Z,8.48
2022-10-04T15:05:08.162Z,11.25
2022-10-04T15:07:52.075Z,10.82
2022-10-04T15:10:33.028Z,9.48
2022-10-04T15:13:19.881Z,11.30
2022-10-04T15:15:56.611Z,9.82
2022-10-04T15:18:33.789Z,10.38
2022-10-04T15:21:19.989Z,10.32
2022-10-04T15:23:54.513Z,10.63
2022-10-04T15:26:20.785Z,10.90
2022-10-04T15:28:50.240Z,10.20
2022-10-04T15:31:34.443Z,9.82
2022-10-04T15:34:13.752Z,10.10
2022-10-04T15:37:02.924Z,10.48
2022-10-04T15:39:58.390Z,9.93
2022-10-04T15:42:29.169Z,10.43
2022-10-04T15:45:30.100Z,10.63
2022-10-04T15:47:56.618Z,11.02
2022-10-04T15:50:30.624Z,10.77
2022-10-04T15:53:34.664Z,11.57
2022-10-04T15:56:40.182Z,11.57
2022-10-04T15:59:33.589Z,10.60
2022-10-04T16:02:17.218Z,11.23
2022-10-04T16:05:03.311Z,11.63
2022-10-04T16:07:52.280Z,16.23
2022-10-04T16:10:35.294Z,26.33
2022-10-04T16:13:16.933Z,25.05
2022-10-04T16:15:49.462Z,29.25
2022-10-04T16:18:25.103Z,28.65
2022-10-04T16:20:57.685Z,23.45
2022-10-04T16:23:32.214Z,29.13
2022-10-04T16:26:10.350Z,26.67
2022-10-04T16:28:58.155Z,25.48
2022-10-04T16:31:50.565Z,21.15
2022-10-04T16:34:27.061Z,25.00
2022-10-04T16:37:05.102Z,21.45
2022-10-04T16:39:59.250Z,24.30
2022-10-04T16:42:34.833Z,24.00
2022-10-04T16:45:39.818Z,24.65
2022-10-04T16:48:23.350Z,23.00
2022-10-04T16:51:05.341Z,23.70
2022-10-04T16:53:49.411Z,19.52
2022-10-04T16:56:24.718Z,18.60
2022-10-04T16:58:51.059Z,15.55
2022-10-04T17:01:21.030Z,12.48
2022-10-04T17:04:25.517Z,12.02
2022-10-04T17:07:12.072Z,13.43
2022-10-04T17:09:52.885Z,11.30
2022-10-04T17:12:45.779Z,12.55
2022-10-04T17:15:15.060Z,14.68
2022-10-04T17:17:54.684Z,18.42
2022-10-04T17:20:45.827Z,18.30
2022-10-04T17:23:30.435Z,19.27
2022-10-04T17:26:05.933Z,17.52
2022-10-04T17:28:57.165Z,15.48
2022-10-04T17:31:39.776Z,15.73
2022-10-04T17:34:28.540Z,19.38
2022-10-04T17:37:05.915Z,17.52
2022-10-04T17:40:08.672Z,20.92
2022-10-04T17:42:44.454Z,19.67
2022-10-04T17:45:20.097Z,20.38
2022-10-04T17:48:32.931Z,19.83
2022-10-04T17:51:20.992Z,21.02
2022-10-04T17:54:13.154Z,18.73
2022-10-04T17:56:45.381Z,19.42
2022-10-04T17:59:30.824Z,19.02
2022-10-04T18:02:10.979Z,18.90
2022-10-04T18:04:48.645Z,18.20
2022-10-04T18:07:20.960Z,17.58
2022-10-04T18:10:17.622Z,17.60
2022-10-04T18:12:57.882Z,18.13
2022-10-04T18:15:31.957Z,19.95
2022-10-04T18:18:07.588Z,19.40
2022-10-04T18:20:37.607Z,17.55
2022-10-04T18:23:28.214Z,20.90
2022-10-04T18:25:59.325Z,20.48
2022-10-04T18:28:25.930Z,20.00
2022-10-04T18:30:59.092Z,21.27
2022-10-04T18:33:35.491Z,22.40
2022-10-04T18:36:18.923Z,20.70
2022-10-04T18:38:58.281Z,22.80
2022-10-04T18:41:44.894Z,20.80
2022-10-04T18:44:16.668Z,23.20
2022-10-04T18:46:47.958Z,23.48
2022-10-04T18:49:25.395Z,21.60
2022-10-04T18:52:07.658Z,23.60
2022-10-04T18:55:13.129Z,23.48
2022-10-04T19:00:59.068Z,22.10
2022-10-04T19:03:40.431Z,19.70
2022-10-04T19:06:32.115Z,18.45
2022-10-04T19:09:04.309Z,18.38
2022-10-04T19:11:47.367Z,18.20
2022-10-04T19:14:31.466Z,20.23
2022-10-04T19:17:05.246Z,18.13
2022-10-04T19:19:51.081Z,18.20
2022-10-04T19:22:50.598Z,17.75
2022-10-04T19:25:35.157Z,20.77
2022-10-04T19:28:16.703Z,21.58
2022-10-04T19:31:07.007Z,21.98
2022-10-04T19:33:43.202Z,18.88
2022-10-04T19:36:31.301Z,18.48
2022-10-04T19:39:15.879Z,18.88
2022-10-04T19:42:04.810Z,20.58
2022-10-04T19:44:43.438Z,18.55
2022-10-04T19:47:33.558Z,17.90
2022-10-04T19:50:17.615Z,18.75
2022-10-04T19:52:49.357Z,17.40
2022-10-04T19:55:29.344Z,20.48
2022-10-04T19:58:06.511Z,18.83
2022-10-04T20:00:35.615Z,20.35
2022-10-04T20:03:02.393Z,22.13
2022-10-04T20:05:29.099Z,20.38
2022-10-04T20:08:04.899Z,23.77
2022-10-04T20:10:36.079Z,21.92
2022-10-04T20:13:23.507Z,22.05
2022-10-04T20:15:52.368Z,21.35
2022-10-04T20:18:34.414Z,22.45
2022-10-04T20:21:01.310Z,21.52
2022-10-04T20:23:40.074Z,21.88
2022-10-04T20:26:10.903Z,22.20
2022-10-04T20:28:41.450Z,22.00
2022-10-04T20:31:32.939Z,19.10
2022-10-04T20:34:23.096Z,21.92
2022-10-04T20:36:51.656Z,21.83
2022-10-04T20:39:50.423Z,23.00
2022-10-04T20:42:36.951Z,21.25
2022-10-04T20:45:09.209Z,21.85
2022-10-04T20:47:39.805Z,23.55
2022-10-04T20:50:15.184Z,23.17
2022-10-04T20:52:47.587Z,22.52
2022-10-04T20:55:20.435Z,25.48
2022-10-04T20:57:47.395Z,24.63
2022-10-04T21:00:22.387Z,24.95
2022-10-04T21:02:49.900Z,23.48
2022-10-04T21:05:24.598Z,23.40
2022-10-04T21:08:13.565Z,21.15
2022-10-04T21:10:59.869Z,23.00
2022-10-04T21:13:50.517Z,22.15
2022-10-04T21:16:34.053Z,25.92
2022-10-04T21:19:47.015Z,22.48
2022-10-04T21:22:16.561Z,21.38
2022-10-04T21:24:54.346Z,21.83
2022-10-04T21:27:26.876Z,22.35
2022-10-04T21:29:53.657Z,21.90
2022-10-04T21:32:20.991Z,21.35
2022-10-04T21:34:55.051Z,23.35
2022-10-04T21:37:21.975Z,24.33
2022-10-04T21:39:48.326Z,22.40
2022-10-04T21:42:14.743Z,24.70
2022-10-04T21:44:41.178Z,23.63
2022-10-04T21:47:07.546Z,22.67
2022-10-04T21:49:33.937Z,25.23
2022-10-04T21:52:00.301Z,23.48
2022-10-04T21:54:26.615Z,24.08
2022-10-04T21:56:54.008Z,26.63
2022-10-04T21:59:21.167Z,23.20
2022-10-04T22:01:47.945Z,24.88
2022-10-04T22:04:14.351Z,25.10
2022-10-04T22:06:41.298Z,25.20
2022-10-04T22:09:08.211Z,26.20
2022-10-04T22:11:34.599Z,25.65
2022-10-04T22:14:00.924Z,23.77
2022-10-04T22:16:27.450Z,24.83
2022-10-04T22:18:54.409Z,25.65
2022-10-04T22:21:20.909Z,24.88
2022-10-04T22:23:47.358Z,24.83
2022-10-04T22:26:19.286Z,24.85
2022-10-04T22:28:56.191Z,27.35
2022-10-04T22:31:26.870Z,27.65
2022-10-04T22:33:54.101Z,30.30
2022-10-04T22:36:26.955Z,30.27
2022-10-04T22:38:58.911Z,31.05
2022-10-04T22:41:31.942Z,30.45
2022-10-04T22:44:02.799Z,30.08
2022-10-04T22:46:36.067Z,32.03
2022-10-04T22:49:03.160Z,33.58
2022-10-04T22:51:29.835Z,34.40
2022-10-04T22:53:56.433Z,30.30
2022-10-04T22:56:22.855Z,30.60
2022-10-04T22:58:49.225Z,31.48
2022-10-04T23:01:18.338Z,34.92
2022-10-04T23:03:47.036Z,35.22
2022-10-04T23:06:14.311Z,31.25
2022-10-04T23:08:44.664Z,34.35
2022-10-04T23:11:11.605Z,35.13
2022-10-04T23:13:38.066Z,35.22
2022-10-04T23:16:23.187Z,34.53
2022-10-04T23:18:50.656Z,31.40
2022-10-04T23:21:23.836Z,33.92
2022-10-04T23:23:52.979Z,34.33
2022-10-04T23:26:24.988Z,32.13
2022-10-04T23:28:51.801Z,34.05
2022-10-04T23:31:27.345Z,33.97
2022-10-04T23:33:56.751Z,32.53
2022-10-04T23:36:23.372Z,31.92
2022-10-04T23:38:56.338Z,36.08
2022-10-04T23:41:23.148Z,33.08
2022-10-04T23:43:49.496Z,32.20
2022-10-04T23:46:19.326Z,33.10
2022-10-04T23:48:46.824Z,34.47
2022-10-04T23:51:16.753Z,34.80
2022-10-04T23:53:46.346Z,34.55
2022-10-04T23:56:20.049Z,34.70
2022-10-04T23:58:46.970Z,34.10
